sensor_id;sensor_type;location;lat;lon;timestamp;P1;durP1;ratioP1;P2;durP2;ratioP2
56373;SDS011;58212;47.034;7.376;2023-05-29T00:00:21;6.38;;;4.60;;
56373;SDS011;58212;47.034;7.376;2023-05-29T00:02:49;6.55;;;4.60;;
56373;SDS011;58212;47.034;7.376;2023-05-29T00:05:17;7.40;;;4.70;;
56373;SDS011;58212;47.034;7.376;2023-05-29T00:07:44;10.85;;;4.82;;
56373;SDS011;58212;47.034;7.376;2023-05-29T00:10:12;7.55;;;5.20;;
56373;SDS011;58212;47.034;7.376;2023-05-29T00:12:43;6.72;;;4.60;;
56373;SDS011;58212;47.034;7.376;2023-05-29T00:15:10;9.10;;;5.45;;
56373;SDS011;58212;47.034;7.376;2023-05-29T00:17:40;7.18;;;4.68;;
56373;SDS011;58212;47.034;7.376;2023-05-29T00:20:08;8.30;;;5.10;;
56373;SDS011;58212;47.034;7.376;2023-05-29T00:22:37;8.05;;;4.70;;
56373;SDS011;58212;47.034;7.376;2023-05-29T00:25:04;9.75;;;5.25;;
56373;SDS011;58212;47.034;7.376;2023-05-29T00:27:35;7.85;;;5.13;;
56373;SDS011;58212;47.034;7.376;2023-05-29T00:30:03;8.25;;;4.97;;
56373;SDS011;58212;47.034;7.376;2023-05-29T00:32:31;8.77;;;5.60;;
56373;SDS011;58212;47.034;7.376;2023-05-29T00:35:00;6.47;;;5.35;;
56373;SDS011;58212;47.034;7.376;2023-05-29T00:37:28;7.03;;;5.20;;
56373;SDS011;58212;47.034;7.376;2023-05-29T00:39:56;7.40;;;5.25;;
56373;SDS011;58212;47.034;7.376;2023-05-29T00:42:23;7.20;;;5.35;;
56373;SDS011;58212;47.034;7.376;2023-05-29T00:44:50;6.88;;;5.35;;
56373;SDS011;58212;47.034;7.376;2023-05-29T00:47:17;11.02;;;5.80;;
56373;SDS011;58212;47.034;7.376;2023-05-29T00:49:44;7.72;;;5.35;;
56373;SDS011;58212;47.034;7.376;2023-05-29T00:52:13;7.03;;;5.25;;
56373;SDS011;58212;47.034;7.376;2023-05-29T00:54:42;6.13;;;4.90;;
56373;SDS011;58212;47.034;7.376;2023-05-29T00:57:10;8.38;;;5.38;;
56373;SDS011;58212;47.034;7.376;2023-05-29T00:59:39;7.43;;;5.18;;
56373;SDS011;58212;47.034;7.376;2023-05-29T01:02:07;7.80;;;5.32;;
56373;SDS011;58212;47.034;7.376;2023-05-29T01:04:35;9.77;;;5.35;;
56373;SDS011;58212;47.034;7.376;2023-05-29T01:07:30;7.22;;;5.03;;
56373;SDS011;58212;47.034;7.376;2023-05-29T01:09:57;8.48;;;5.60;;
56373;SDS011;58212;47.034;7.376;2023-05-29T01:12:31;7.63;;;4.88;;
56373;SDS011;58212;47.034;7.376;2023-05-29T01:15:07;6.88;;;5.07;;
56373;SDS011;58212;47.034;7.376;2023-05-29T01:17:52;7.30;;;4.75;;
56373;SDS011;58212;47.034;7.376;2023-05-29T01:20:35;8.20;;;5.57;;
56373;SDS011;58212;47.034;7.376;2023-05-29T01:23:19;7.90;;;5.43;;
56373;SDS011;58212;47.034;7.376;2023-05-29T01:26:11;7.30;;;5.30;;
56373;SDS011;58212;47.034;7.376;2023-05-29T01:29:17;7.90;;;5.55;;
56373;SDS011;58212;47.034;7.376;2023-05-29T01:32:11;6.68;;;5.30;;
56373;SDS011;58212;47.034;7.376;2023-05-29T01:34:40;9.20;;;5.05;;
56373;SDS011;58212;47.034;7.376;2023-05-29T01:37:08;6.60;;;5.15;;
56373;SDS011;58212;47.034;7.376;2023-05-29T01:39:36;7.88;;;5.00;;
56373;SDS011;58212;47.034;7.376;2023-05-29T01:42:07;6.97;;;5.20;;
56373;SDS011;58212;47.034;7.376;2023-05-29T01:44:37;5.95;;;5.05;;
56373;SDS011;58212;47.034;7.376;2023-05-29T01:47:05;6.57;;;4.82;;
56373;SDS011;58212;47.034;7.376;2023-05-29T01:49:33;9.00;;;5.90;;
56373;SDS011;58212;47.034;7.376;2023-05-29T01:52:07;8.75;;;5.80;;
56373;SDS011;58212;47.034;7.376;2023-05-29T01:54:37;8.23;;;5.80;;
56373;SDS011;58212;47.034;7.376;2023-05-29T01:57:05;8.80;;;5.75;;
56373;SDS011;58212;47.034;7.376;2023-05-29T01:59:33;8.02;;;5.78;;
56373;SDS011;58212;47.034;7.376;2023-05-29T02:02:08;8.25;;;5.70;;
56373;SDS011;58212;47.034;7.376;2023-05-29T02:04:37;6.75;;;5.25;;
56373;SDS011;58212;47.034;7.376;2023-05-29T02:07:04;7.55;;;5.90;;
56373;SDS011;58212;47.034;7.376;2023-05-29T02:09:34;8.25;;;5.93;;
56373;SDS011;58212;47.034;7.376;2023-05-29T02:12:02;7.68;;;5.30;;
56373;SDS011;58212;47.034;7.376;2023-05-29T02:14:30;8.45;;;5.55;;
56373;SDS011;58212;47.034;7.376;2023-05-29T02:17:02;9.27;;;5.78;;
56373;SDS011;58212;47.034;7.376;2023-05-29T02:19:31;7.82;;;5.28;;
56373;SDS011;58212;47.034;7.376;2023-05-29T02:21:59;6.25;;;5.50;;
56373;SDS011;58212;47.034;7.376;2023-05-29T02:24:27;8.82;;;4.82;;
56373;SDS011;58212;47.034;7.376;2023-05-29T02:26:55;7.75;;;5.75;;
56373;SDS011;58212;47.034;7.376;2023-05-29T02:29:22;7.80;;;5.85;;
56373;SDS011;58212;47.034;7.376;2023-05-29T02:31:53;8.50;;;5.43;;
56373;SDS011;58212;47.034;7.376;2023-05-29T02:34:20;7.03;;;5.30;;
56373;SDS011;58212;47.034;7.376;2023-05-29T02:36:51;6.65;;;5.35;;
56373;SDS011;58212;47.034;7.376;2023-05-29T02:39:18;7.15;;;4.90;;
56373;SDS011;58212;47.034;7.376;2023-05-29T02:41:45;6.47;;;5.07;;
56373;SDS011;58212;47.034;7.376;2023-05-29T02:44:16;9.07;;;5.63;;
56373;SDS011;58212;47.034;7.376;2023-05-29T02:46:44;7.10;;;5.35;;
56373;SDS011;58212;47.034;7.376;2023-05-29T02:49:11;8.10;;;5.28;;
56373;SDS011;58212;47.034;7.376;2023-05-29T02:51:38;6.50;;;4.88;;
56373;SDS011;58212;47.034;7.376;2023-05-29T02:54:07;8.20;;;5.60;;
56373;SDS011;58212;47.034;7.376;2023-05-29T02:56:37;7.60;;;5.63;;
56373;SDS011;58212;47.034;7.376;2023-05-29T02:59:04;7.22;;;5.25;;
56373;SDS011;58212;47.034;7.376;2023-05-29T03:01:34;8.73;;;5.15;;
56373;SDS011;58212;47.034;7.376;2023-05-29T03:04:01;6.10;;;5.35;;
56373;SDS011;58212;47.034;7.376;2023-05-29T03:06:30;7.28;;;4.70;;
56373;SDS011;58212;47.034;7.376;2023-05-29T03:08:59;6.93;;;5.22;;
56373;SDS011;58212;47.034;7.376;2023-05-29T03:11:27;6.82;;;5.22;;
56373;SDS011;58212;47.034;7.376;2023-05-29T03:13:55;7.13;;;5.07;;
56373;SDS011;58212;47.034;7.376;2023-05-29T03:16:48;5.75;;;5.10;;
56373;SDS011;58212;47.034;7.376;2023-05-29T03:19:16;6.88;;;5.43;;
56373;SDS011;58212;47.034;7.376;2023-05-29T03:21:43;7.32;;;5.20;;
56373;SDS011;58212;47.034;7.376;2023-05-29T03:24:11;5.50;;;4.90;;
56373;SDS011;58212;47.034;7.376;2023-05-29T03:26:41;7.20;;;5.07;;
56373;SDS011;58212;47.034;7.376;2023-05-29T03:29:09;6.82;;;5.43;;
56373;SDS011;58212;47.034;7.376;2023-05-29T03:31:36;5.65;;;5.00;;
56373;SDS011;58212;47.034;7.376;2023-05-29T03:34:03;7.63;;;5.35;;
56373;SDS011;58212;47.034;7.376;2023-05-29T03:36:42;5.78;;;4.88;;
56373;SDS011;58212;47.034;7.376;2023-05-29T03:39:11;7.68;;;5.13;;
56373;SDS011;58212;47.034;7.376;2023-05-29T03:41:39;7.55;;;5.25;;
56373;SDS011;58212;47.034;7.376;2023-05-29T03:44:09;7.10;;;5.22;;
56373;SDS011;58212;47.034;7.376;2023-05-29T03:46:40;6.70;;;5.10;;
56373;SDS011;58212;47.034;7.376;2023-05-29T03:49:07;6.55;;;5.03;;
56373;SDS011;58212;47.034;7.376;2023-05-29T03:51:35;7.68;;;5.03;;
56373;SDS011;58212;47.034;7.376;2023-05-29T03:54:04;6.72;;;5.10;;
56373;SDS011;58212;47.034;7.376;2023-05-29T03:56:32;5.65;;;4.82;;
56373;SDS011;58212;47.034;7.376;2023-05-29T03:59:02;7.80;;;5.03;;
56373;SDS011;58212;47.034;7.376;2023-05-29T04:01:30;7.30;;;5.07;;
56373;SDS011;58212;47.034;7.376;2023-05-29T04:03:58;9.45;;;5.80;;
56373;SDS011;58212;47.034;7.376;2023-05-29T04:06:28;6.43;;;5.00;;
56373;SDS011;58212;47.034;7.376;2023-05-29T04:08:56;6.65;;;5.57;;
56373;SDS011;58212;47.034;7.376;2023-05-29T04:11:23;6.65;;;5.20;;
56373;SDS011;58212;47.034;7.376;2023-05-29T04:13:53;7.93;;;5.30;;
56373;SDS011;58212;47.034;7.376;2023-05-29T04:16:22;8.57;;;5.30;;
56373;SDS011;58212;47.034;7.376;2023-05-29T04:18:50;5.50;;;4.80;;
56373;SDS011;58212;47.034;7.376;2023-05-29T04:21:23;7.28;;;5.10;;
56373;SDS011;58212;47.034;7.376;2023-05-29T04:23:52;7.78;;;5.20;;
56373;SDS011;58212;47.034;7.376;2023-05-29T04:26:19;7.65;;;5.45;;
56373;SDS011;58212;47.034;7.376;2023-05-29T04:28:51;9.88;;;5.47;;
56373;SDS011;58212;47.034;7.376;2023-05-29T04:31:25;7.57;;;5.30;;
56373;SDS011;58212;47.034;7.376;2023-05-29T04:33:56;5.95;;;5.32;;
56373;SDS011;58212;47.034;7.376;2023-05-29T04:36:26;6.10;;;5.18;;
56373;SDS011;58212;47.034;7.376;2023-05-29T04:39:06;6.03;;;4.47;;
56373;SDS011;58212;47.034;7.376;2023-05-29T04:41:35;7.45;;;4.93;;
56373;SDS011;58212;47.034;7.376;2023-05-29T04:44:06;7.80;;;5.40;;
56373;SDS011;58212;47.034;7.376;2023-05-29T04:46:46;7.97;;;5.20;;
56373;SDS011;58212;47.034;7.376;2023-05-29T04:49:15;7.60;;;5.22;;
56373;SDS011;58212;47.034;7.376;2023-05-29T04:51:43;8.65;;;5.15;;
56373;SDS011;58212;47.034;7.376;2023-05-29T04:54:11;6.07;;;4.97;;
56373;SDS011;58212;47.034;7.376;2023-05-29T04:56:40;7.32;;;5.55;;
56373;SDS011;58212;47.034;7.376;2023-05-29T04:59:09;6.80;;;5.68;;
56373;SDS011;58212;47.034;7.376;2023-05-29T05:01:37;8.77;;;5.57;;
56373;SDS011;58212;47.034;7.376;2023-05-29T05:04:15;6.75;;;4.97;;
56373;SDS011;58212;47.034;7.376;2023-05-29T05:06:42;6.43;;;5.82;;
56373;SDS011;58212;47.034;7.376;2023-05-29T05:09:10;6.05;;;5.30;;
56373;SDS011;58212;47.034;7.376;2023-05-29T05:11:38;7.57;;;5.50;;
56373;SDS011;58212;47.034;7.376;2023-05-29T05:14:07;7.32;;;5.22;;
56373;SDS011;58212;47.034;7.376;2023-05-29T05:16:59;5.72;;;5.10;;
56373;SDS011;58212;47.034;7.376;2023-05-29T05:19:28;5.68;;;5.10;;
56373;SDS011;58212;47.034;7.376;2023-05-29T05:21:55;5.97;;;5.38;;
56373;SDS011;58212;47.034;7.376;2023-05-29T05:24:26;7.65;;;5.45;;
56373;SDS011;58212;47.034;7.376;2023-05-29T05:26:53;6.68;;;5.57;;
56373;SDS011;58212;47.034;7.376;2023-05-29T05:29:20;8.52;;;5.75;;
56373;SDS011;58212;47.034;7.376;2023-05-29T05:31:52;27.05;;;24.00;;
56373;SDS011;58212;47.034;7.376;2023-05-29T05:37:39;25.30;;;21.73;;
56373;SDS011;58212;47.034;7.376;2023-05-29T05:40:09;38.92;;;33.75;;
56373;SDS011;58212;47.034;7.376;2023-05-29T05:42:46;33.28;;;27.33;;
56373;SDS011;58212;47.034;7.376;2023-05-29T05:45:14;39.60;;;32.90;;
56373;SDS011;58212;47.034;7.376;2023-05-29T05:47:41;25.08;;;19.80;;
56373;SDS011;58212;47.034;7.376;2023-05-29T05:50:10;14.30;;;12.02;;
56373;SDS011;58212;47.034;7.376;2023-05-29T05:52:40;13.68;;;10.77;;
56373;SDS011;58212;47.034;7.376;2023-05-29T05:55:08;8.77;;;7.63;;
56373;SDS011;58212;47.034;7.376;2023-05-29T05:57:37;8.02;;;7.00;;
56373;SDS011;58212;47.034;7.376;2023-05-29T06:00:07;8.55;;;5.95;;
56373;SDS011;58212;47.034;7.376;2023-05-29T06:02:41;7.88;;;6.00;;
56373;SDS011;58212;47.034;7.376;2023-05-29T06:05:17;7.28;;;5.68;;
56373;SDS011;58212;47.034;7.376;2023-05-29T06:07:46;7.47;;;6.30;;
56373;SDS011;58212;47.034;7.376;2023-05-29T06:10:15;6.93;;;6.20;;
56373;SDS011;58212;47.034;7.376;2023-05-29T06:12:42;7.03;;;6.28;;
56373;SDS011;58212;47.034;7.376;2023-05-29T06:15:18;7.72;;;6.60;;
56373;SDS011;58212;47.034;7.376;2023-05-29T06:17:46;9.20;;;6.13;;
56373;SDS011;58212;47.034;7.376;2023-05-29T06:20:15;8.30;;;6.40;;
56373;SDS011;58212;47.034;7.376;2023-05-29T06:22:43;9.95;;;6.50;;
56373;SDS011;58212;47.034;7.376;2023-05-29T06:25:17;8.25;;;5.93;;
56373;SDS011;58212;47.034;7.376;2023-05-29T06:27:47;8.65;;;6.40;;
56373;SDS011;58212;47.034;7.376;2023-05-29T06:30:15;7.18;;;6.20;;
56373;SDS011;58212;47.034;7.376;2023-05-29T06:32:42;6.43;;;5.70;;
56373;SDS011;58212;47.034;7.376;2023-05-29T06:35:10;6.72;;;5.30;;
56373;SDS011;58212;47.034;7.376;2023-05-29T06:37:38;8.18;;;5.72;;
56373;SDS011;58212;47.034;7.376;2023-05-29T06:40:07;7.38;;;5.78;;
56373;SDS011;58212;47.034;7.376;2023-05-29T06:42:38;7.90;;;6.10;;
56373;SDS011;58212;47.034;7.376;2023-05-29T06:45:13;8.95;;;6.10;;
56373;SDS011;58212;47.034;7.376;2023-05-29T06:47:41;8.77;;;6.32;;
56373;SDS011;58212;47.034;7.376;2023-05-29T06:50:10;7.70;;;5.88;;
56373;SDS011;58212;47.034;7.376;2023-05-29T06:52:38;7.47;;;5.97;;
56373;SDS011;58212;47.034;7.376;2023-05-29T06:55:24;8.50;;;6.22;;
56373;SDS011;58212;47.034;7.376;2023-05-29T06:57:56;7.75;;;5.93;;
56373;SDS011;58212;47.034;7.376;2023-05-29T07:00:25;7.00;;;5.85;;
56373;SDS011;58212;47.034;7.376;2023-05-29T07:03:09;7.25;;;5.75;;
56373;SDS011;58212;47.034;7.376;2023-05-29T07:05:39;11.45;;;6.15;;
56373;SDS011;58212;47.034;7.376;2023-05-29T07:08:06;6.85;;;5.82;;
56373;SDS011;58212;47.034;7.376;2023-05-29T07:10:36;7.80;;;5.55;;
56373;SDS011;58212;47.034;7.376;2023-05-29T07:13:04;8.27;;;6.05;;
56373;SDS011;58212;47.034;7.376;2023-05-29T07:15:34;8.38;;;5.82;;
56373;SDS011;58212;47.034;7.376;2023-05-29T07:18:02;8.57;;;5.95;;
56373;SDS011;58212;47.034;7.376;2023-05-29T07:20:33;10.65;;;5.63;;
56373;SDS011;58212;47.034;7.376;2023-05-29T07:23:01;7.10;;;5.35;;
56373;SDS011;58212;47.034;7.376;2023-05-29T07:25:29;5.97;;;5.38;;
56373;SDS011;58212;47.034;7.376;2023-05-29T07:27:56;8.75;;;6.35;;
56373;SDS011;58212;47.034;7.376;2023-05-29T07:30:25;7.97;;;5.82;;
56373;SDS011;58212;47.034;7.376;2023-05-29T07:33:17;8.52;;;6.03;;
56373;SDS011;58212;47.034;7.376;2023-05-29T07:35:45;7.38;;;6.28;;
56373;SDS011;58212;47.034;7.376;2023-05-29T07:38:13;6.78;;;5.72;;
56373;SDS011;58212;47.034;7.376;2023-05-29T07:40:41;7.90;;;6.10;;
56373;SDS011;58212;47.034;7.376;2023-05-29T07:43:08;8.23;;;5.97;;
56373;SDS011;58212;47.034;7.376;2023-05-29T07:45:56;7.18;;;6.28;;
56373;SDS011;58212;47.034;7.376;2023-05-29T07:48:23;8.10;;;5.72;;
56373;SDS011;58212;47.034;7.376;2023-05-29T07:50:51;7.78;;;5.38;;
56373;SDS011;58212;47.034;7.376;2023-05-29T07:53:19;8.32;;;5.85;;
56373;SDS011;58212;47.034;7.376;2023-05-29T07:55:48;7.53;;;5.75;;
56373;SDS011;58212;47.034;7.376;2023-05-29T07:58:16;9.77;;;7.80;;
56373;SDS011;58212;47.034;7.376;2023-05-29T08:00:44;8.50;;;6.40;;
56373;SDS011;58212;47.034;7.376;2023-05-29T08:03:16;9.15;;;6.13;;
56373;SDS011;58212;47.034;7.376;2023-05-29T08:06:02;8.45;;;5.75;;
56373;SDS011;58212;47.034;7.376;2023-05-29T08:08:56;11.02;;;5.95;;
56373;SDS011;58212;47.034;7.376;2023-05-29T08:11:24;7.40;;;5.75;;
56373;SDS011;58212;47.034;7.376;2023-05-29T08:13:52;8.60;;;5.82;;
56373;SDS011;58212;47.034;7.376;2023-05-29T08:16:21;9.43;;;6.15;;
56373;SDS011;58212;47.034;7.376;2023-05-29T08:19:14;8.23;;;5.80;;
56373;SDS011;58212;47.034;7.376;2023-05-29T08:21:42;7.15;;;5.57;;
56373;SDS011;58212;47.034;7.376;2023-05-29T08:24:09;7.57;;;5.50;;
56373;SDS011;58212;47.034;7.376;2023-05-29T08:26:36;8.23;;;5.55;;
56373;SDS011;58212;47.034;7.376;2023-05-29T08:29:03;7.15;;;5.47;;
56373;SDS011;58212;47.034;7.376;2023-05-29T08:31:32;8.35;;;6.15;;
56373;SDS011;58212;47.034;7.376;2023-05-29T08:33:59;7.53;;;5.57;;
56373;SDS011;58212;47.034;7.376;2023-05-29T08:36:28;6.97;;;5.75;;
56373;SDS011;58212;47.034;7.376;2023-05-29T08:38:56;10.30;;;6.07;;
56373;SDS011;58212;47.034;7.376;2023-05-29T08:41:25;7.72;;;5.43;;
56373;SDS011;58212;47.034;7.376;2023-05-29T08:43:57;8.00;;;5.60;;
56373;SDS011;58212;47.034;7.376;2023-05-29T08:46:29;6.53;;;5.22;;
56373;SDS011;58212;47.034;7.376;2023-05-29T08:48:58;7.45;;;5.78;;
56373;SDS011;58212;47.034;7.376;2023-05-29T08:51:31;6.28;;;5.32;;
56373;SDS011;58212;47.034;7.376;2023-05-29T08:54:03;7.65;;;5.50;;
56373;SDS011;58212;47.034;7.376;2023-05-29T08:56:32;9.57;;;5.88;;
56373;SDS011;58212;47.034;7.376;2023-05-29T08:59:01;8.55;;;5.40;;
56373;SDS011;58212;47.034;7.376;2023-05-29T09:01:29;8.68;;;5.55;;
56373;SDS011;58212;47.034;7.376;2023-05-29T09:03:58;8.52;;;5.50;;
56373;SDS011;58212;47.034;7.376;2023-05-29T09:06:26;7.43;;;5.43;;
56373;SDS011;58212;47.034;7.376;2023-05-29T09:08:55;6.75;;;4.90;;
56373;SDS011;58212;47.034;7.376;2023-05-29T09:11:25;6.95;;;5.03;;
56373;SDS011;58212;47.034;7.376;2023-05-29T09:13:54;5.55;;;4.85;;
56373;SDS011;58212;47.034;7.376;2023-05-29T09:16:26;7.47;;;5.45;;
56373;SDS011;58212;47.034;7.376;2023-05-29T09:19:17;6.45;;;4.90;;
56373;SDS011;58212;47.034;7.376;2023-05-29T09:21:45;6.47;;;4.88;;
56373;SDS011;58212;47.034;7.376;2023-05-29T09:24:15;7.53;;;5.43;;
56373;SDS011;58212;47.034;7.376;2023-05-29T09:26:50;7.22;;;5.30;;
56373;SDS011;58212;47.034;7.376;2023-05-29T09:29:18;6.53;;;5.03;;
56373;SDS011;58212;47.034;7.376;2023-05-29T09:31:46;6.90;;;4.82;;
56373;SDS011;58212;47.034;7.376;2023-05-29T09:34:14;8.32;;;4.97;;
56373;SDS011;58212;47.034;7.376;2023-05-29T09:36:42;5.60;;;4.97;;
56373;SDS011;58212;47.034;7.376;2023-05-29T09:41:58;6.05;;;4.70;;
56373;SDS011;58212;47.034;7.376;2023-05-29T09:44:54;5.45;;;4.63;;
56373;SDS011;58212;47.034;7.376;2023-05-29T09:47:24;6.20;;;4.72;;
56373;SDS011;58212;47.034;7.376;2023-05-29T09:50:05;5.35;;;4.78;;
56373;SDS011;58212;47.034;7.376;2023-05-29T09:52:48;7.10;;;4.40;;
56373;SDS011;58212;47.034;7.376;2023-05-29T09:55:19;7.65;;;4.68;;
56373;SDS011;58212;47.034;7.376;2023-05-29T09:57:47;7.38;;;5.32;;
56373;SDS011;58212;47.034;7.376;2023-05-29T10:00:15;5.78;;;4.50;;
56373;SDS011;58212;47.034;7.376;2023-05-29T10:02:43;7.05;;;5.07;;
56373;SDS011;58212;47.034;7.376;2023-05-29T10:05:10;8.07;;;4.90;;
56373;SDS011;58212;47.034;7.376;2023-05-29T10:07:43;8.85;;;5.18;;
56373;SDS011;58212;47.034;7.376;2023-05-29T10:10:13;7.10;;;4.75;;
56373;SDS011;58212;47.034;7.376;2023-05-29T10:12:45;7.63;;;4.80;;
56373;SDS011;58212;47.034;7.376;2023-05-29T10:15:16;6.50;;;4.82;;
56373;SDS011;58212;47.034;7.376;2023-05-29T10:17:49;41.00;;;28.25;;
56373;SDS011;58212;47.034;7.376;2023-05-29T10:20:17;8.30;;;5.40;;
56373;SDS011;58212;47.034;7.376;2023-05-29T10:22:47;5.78;;;4.75;;
56373;SDS011;58212;47.034;7.376;2023-05-29T10:25:17;6.57;;;4.57;;
56373;SDS011;58212;47.034;7.376;2023-05-29T10:27:48;7.90;;;5.10;;
56373;SDS011;58212;47.034;7.376;2023-05-29T10:30:20;7.93;;;5.00;;
56373;SDS011;58212;47.034;7.376;2023-05-29T10:33:04;6.32;;;4.57;;
56373;SDS011;58212;47.034;7.376;2023-05-29T10:35:42;7.28;;;5.25;;
56373;SDS011;58212;47.034;7.376;2023-05-29T10:38:14;6.70;;;5.28;;
56373;SDS011;58212;47.034;7.376;2023-05-29T10:40:43;5.97;;;4.65;;
56373;SDS011;58212;47.034;7.376;2023-05-29T10:49:25;6.22;;;4.80;;
56373;SDS011;58212;47.034;7.376;2023-05-29T10:51:53;6.28;;;4.80;;
56373;SDS011;58212;47.034;7.376;2023-05-29T10:54:21;6.65;;;5.10;;
56373;SDS011;58212;47.034;7.376;2023-05-29T10:56:51;6.20;;;5.20;;
56373;SDS011;58212;47.034;7.376;2023-05-29T11:00:37;6.25;;;5.03;;
56373;SDS011;58212;47.034;7.376;2023-05-29T11:03:07;5.65;;;4.70;;
56373;SDS011;58212;47.034;7.376;2023-05-29T11:05:35;7.35;;;4.97;;
56373;SDS011;58212;47.034;7.376;2023-05-29T11:08:28;5.90;;;4.95;;
56373;SDS011;58212;47.034;7.376;2023-05-29T11:10:58;6.15;;;4.80;;
56373;SDS011;58212;47.034;7.376;2023-05-29T11:13:25;6.25;;;5.00;;
56373;SDS011;58212;47.034;7.376;2023-05-29T11:19:03;7.03;;;4.88;;
56373;SDS011;58212;47.034;7.376;2023-05-29T11:21:33;7.18;;;4.45;;
56373;SDS011;58212;47.034;7.376;2023-05-29T11:24:12;5.63;;;4.40;;
56373;SDS011;58212;47.034;7.376;2023-05-29T11:26:46;7.50;;;4.90;;
56373;SDS011;58212;47.034;7.376;2023-05-29T11:29:14;5.13;;;4.50;;
56373;SDS011;58212;47.034;7.376;2023-05-29T11:31:45;5.20;;;4.53;;
56373;SDS011;58212;47.034;7.376;2023-05-29T11:34:14;6.93;;;4.40;;
56373;SDS011;58212;47.034;7.376;2023-05-29T11:36:41;6.93;;;5.10;;
56373;SDS011;58212;47.034;7.376;2023-05-29T11:39:09;5.45;;;4.40;;
56373;SDS011;58212;47.034;7.376;2023-05-29T11:41:38;6.00;;;4.25;;
56373;SDS011;58212;47.034;7.376;2023-05-29T11:44:06;5.43;;;4.35;;
56373;SDS011;58212;47.034;7.376;2023-05-29T11:47:31;5.50;;;4.25;;
56373;SDS011;58212;47.034;7.376;2023-05-29T11:49:59;5.78;;;4.28;;
56373;SDS011;58212;47.034;7.376;2023-05-29T11:52:26;4.80;;;4.30;;
56373;SDS011;58212;47.034;7.376;2023-05-29T11:54:55;6.20;;;4.70;;
56373;SDS011;58212;47.034;7.376;2023-05-29T11:57:33;5.10;;;4.60;;
56373;SDS011;58212;47.034;7.376;2023-05-29T12:00:00;6.85;;;5.00;;
56373;SDS011;58212;47.034;7.376;2023-05-29T12:02:39;5.20;;;4.30;;
56373;SDS011;58212;47.034;7.376;2023-05-29T12:05:07;6.55;;;4.53;;
56373;SDS011;58212;47.034;7.376;2023-05-29T12:07:35;5.63;;;4.70;;
56373;SDS011;58212;47.034;7.376;2023-05-29T12:10:09;5.07;;;4.15;;
56373;SDS011;58212;47.034;7.376;2023-05-29T12:12:37;5.70;;;4.40;;
56373;SDS011;58212;47.034;7.376;2023-05-29T12:15:05;7.22;;;4.30;;
56373;SDS011;58212;47.034;7.376;2023-05-29T12:17:34;6.05;;;3.92;;
56373;SDS011;58212;47.034;7.376;2023-05-29T12:20:03;4.78;;;3.30;;
56373;SDS011;58212;47.034;7.376;2023-05-29T12:22:33;4.25;;;3.72;;
56373;SDS011;58212;47.034;7.376;2023-05-29T12:25:05;4.30;;;3.85;;
56373;SDS011;58212;47.034;7.376;2023-05-29T12:27:34;4.40;;;3.90;;
56373;SDS011;58212;47.034;7.376;2023-05-29T12:30:08;4.28;;;3.88;;
56373;SDS011;58212;47.034;7.376;2023-05-29T12:32:36;5.07;;;4.10;;
56373;SDS011;58212;47.034;7.376;2023-05-29T12:35:12;4.55;;;3.63;;
56373;SDS011;58212;47.034;7.376;2023-05-29T12:37:47;4.10;;;3.70;;
56373;SDS011;58212;47.034;7.376;2023-05-29T12:40:16;5.68;;;3.97;;
56373;SDS011;58212;47.034;7.376;2023-05-29T12:42:46;4.32;;;3.70;;
56373;SDS011;58212;47.034;7.376;2023-05-29T12:45:14;6.07;;;4.22;;
56373;SDS011;58212;47.034;7.376;2023-05-29T12:47:46;5.07;;;3.83;;
56373;SDS011;58212;47.034;7.376;2023-05-29T12:50:25;7.07;;;4.20;;
56373;SDS011;58212;47.034;7.376;2023-05-29T12:52:54;4.55;;;3.85;;
56373;SDS011;58212;47.034;7.376;2023-05-29T12:55:22;6.95;;;4.57;;
56373;SDS011;58212;47.034;7.376;2023-05-29T12:57:49;5.95;;;4.30;;
56373;SDS011;58212;47.034;7.376;2023-05-29T13:00:17;5.43;;;4.15;;
56373;SDS011;58212;47.034;7.376;2023-05-29T13:02:46;9.65;;;8.27;;
56373;SDS011;58212;47.034;7.376;2023-05-29T13:05:14;7.13;;;5.28;;
56373;SDS011;58212;47.034;7.376;2023-05-29T13:09:10;6.47;;;4.07;;
56373;SDS011;58212;47.034;7.376;2023-05-29T13:11:46;5.03;;;3.92;;
56373;SDS011;58212;47.034;7.376;2023-05-29T13:14:14;4.40;;;3.50;;
56373;SDS011;58212;47.034;7.376;2023-05-29T13:16:41;5.13;;;3.78;;
56373;SDS011;58212;47.034;7.376;2023-05-29T13:19:08;4.65;;;3.83;;
56373;SDS011;58212;47.034;7.376;2023-05-29T13:21:37;6.88;;;4.50;;
56373;SDS011;58212;47.034;7.376;2023-05-29T13:24:07;5.55;;;4.10;;
56373;SDS011;58212;47.034;7.376;2023-05-29T13:26:35;4.55;;;4.10;;
56373;SDS011;58212;47.034;7.376;2023-05-29T13:29:03;5.90;;;3.95;;
56373;SDS011;58212;47.034;7.376;2023-05-29T13:31:33;3.83;;;3.42;;
56373;SDS011;58212;47.034;7.376;2023-05-29T13:34:00;6.07;;;3.78;;
56373;SDS011;58212;47.034;7.376;2023-05-29T13:36:27;6.53;;;4.20;;
56373;SDS011;58212;47.034;7.376;2023-05-29T13:38:54;5.75;;;4.68;;
56373;SDS011;58212;47.034;7.376;2023-05-29T13:41:23;6.53;;;4.30;;
56373;SDS011;58212;47.034;7.376;2023-05-29T13:43:50;5.47;;;3.92;;
56373;SDS011;58212;47.034;7.376;2023-05-29T13:46:18;5.13;;;3.95;;
56373;SDS011;58212;47.034;7.376;2023-05-29T13:48:45;4.53;;;3.83;;
56373;SDS011;58212;47.034;7.376;2023-05-29T13:51:14;5.57;;;3.90;;
56373;SDS011;58212;47.034;7.376;2023-05-29T13:53:43;5.68;;;4.47;;
56373;SDS011;58212;47.034;7.376;2023-05-29T13:56:10;4.43;;;3.95;;
56373;SDS011;58212;47.034;7.376;2023-05-29T13:58:38;5.95;;;4.60;;
56373;SDS011;58212;47.034;7.376;2023-05-29T14:01:07;5.85;;;3.85;;
56373;SDS011;58212;47.034;7.376;2023-05-29T14:03:34;4.95;;;4.10;;
56373;SDS011;58212;47.034;7.376;2023-05-29T14:06:03;7.00;;;4.75;;
56373;SDS011;58212;47.034;7.376;2023-05-29T14:08:30;5.90;;;4.38;;
56373;SDS011;58212;47.034;7.376;2023-05-29T14:10:58;6.50;;;4.15;;
56373;SDS011;58212;47.034;7.376;2023-05-29T14:13:25;6.68;;;4.60;;
56373;SDS011;58212;47.034;7.376;2023-05-29T14:15:53;4.88;;;4.38;;
56373;SDS011;58212;47.034;7.376;2023-05-29T14:18:22;5.32;;;3.90;;
56373;SDS011;58212;47.034;7.376;2023-05-29T14:20:50;6.00;;;3.97;;
56373;SDS011;58212;47.034;7.376;2023-05-29T14:23:18;6.78;;;4.32;;
56373;SDS011;58212;47.034;7.376;2023-05-29T14:25:46;5.25;;;4.72;;
56373;SDS011;58212;47.034;7.376;2023-05-29T14:28:13;4.53;;;4.00;;
56373;SDS011;58212;47.034;7.376;2023-05-29T14:30:40;5.15;;;4.15;;
56373;SDS011;58212;47.034;7.376;2023-05-29T14:33:09;5.13;;;3.90;;
56373;SDS011;58212;47.034;7.376;2023-05-29T14:35:36;6.57;;;4.47;;
56373;SDS011;58212;47.034;7.376;2023-05-29T14:38:03;4.70;;;4.25;;
56373;SDS011;58212;47.034;7.376;2023-05-29T14:40:30;4.72;;;4.22;;
56373;SDS011;58212;47.034;7.376;2023-05-29T14:43:00;5.20;;;4.38;;
56373;SDS011;58212;47.034;7.376;2023-05-29T14:45:27;7.28;;;4.72;;
56373;SDS011;58212;47.034;7.376;2023-05-29T14:47:56;6.55;;;4.15;;
56373;SDS011;58212;47.034;7.376;2023-05-29T14:50:26;4.72;;;4.22;;
56373;SDS011;58212;47.034;7.376;2023-05-29T14:52:53;4.68;;;4.20;;
56373;SDS011;58212;47.034;7.376;2023-05-29T14:55:23;4.80;;;4.15;;
56373;SDS011;58212;47.034;7.376;2023-05-29T14:57:50;5.40;;;4.70;;
56373;SDS011;58212;47.034;7.376;2023-05-29T15:00:17;5.70;;;5.10;;
56373;SDS011;58212;47.034;7.376;2023-05-29T15:02:45;5.82;;;4.70;;
56373;SDS011;58212;47.034;7.376;2023-05-29T15:05:12;6.38;;;4.43;;
56373;SDS011;58212;47.034;7.376;2023-05-29T15:07:41;5.63;;;4.07;;
56373;SDS011;58212;47.034;7.376;2023-05-29T15:10:08;5.88;;;4.35;;
56373;SDS011;58212;47.034;7.376;2023-05-29T15:12:39;8.38;;;5.50;;
56373;SDS011;58212;47.034;7.376;2023-05-29T15:15:06;6.28;;;4.43;;
56373;SDS011;58212;47.034;7.376;2023-05-29T15:17:35;6.35;;;5.13;;
56373;SDS011;58212;47.034;7.376;2023-05-29T15:20:04;4.97;;;4.45;;
56373;SDS011;58212;47.034;7.376;2023-05-29T15:22:33;6.60;;;4.82;;
56373;SDS011;58212;47.034;7.376;2023-05-29T15:25:02;6.53;;;4.85;;